createdAt,value
2023-05-04T00:00:05.166Z,396.00
2023-05-04T00:01:04.885Z,397.00
2023-05-04T00:02:04.880Z,398.00
2023-05-04T00:03:04.974Z,399.00
2023-05-04T00:04:04.949Z,398.00
2023-05-04T00:05:04.871Z,396.00
2023-05-04T00:06:04.868Z,395.00
2023-05-04T00:07:04.872Z,395.00
2023-05-04T00:08:04.873Z,395.00
2023-05-04T00:09:04.869Z,394.00
2023-05-04T00:10:05.032Z,391.00
2023-05-04T00:11:04.881Z,390.00
2023-05-04T00:12:04.884Z,392.00
2023-05-04T00:13:04.920Z,390.00
2023-05-04T00:14:04.875Z,390.00
2023-05-04T00:15:04.881Z,391.00
2023-05-04T00:16:04.882Z,388.00
2023-05-04T00:17:04.889Z,387.00
2023-05-04T00:18:04.936Z,387.00
2023-05-04T00:19:04.915Z,385.00
2023-05-04T00:20:05.196Z,386.00
2023-05-04T00:21:04.932Z,388.00
2023-05-04T00:22:04.952Z,386.00
2023-05-04T00:23:04.942Z,384.00
2023-05-04T00:24:04.920Z,386.00
2023-05-04T00:25:04.936Z,390.00
2023-05-04T00:26:04.930Z,390.00
2023-05-04T00:27:04.925Z,393.00
2023-05-04T00:28:04.911Z,391.00
2023-05-04T00:29:04.906Z,391.00
2023-05-04T00:30:05.037Z,392.00
2023-05-04T00:31:04.911Z,394.00
2023-05-04T00:32:04.974Z,393.00
2023-05-04T00:33:04.992Z,394.00
2023-05-04T00:34:04.889Z,395.00
2023-05-04T00:35:04.927Z,395.00
2023-05-04T00:36:04.891Z,393.00
2023-05-04T00:37:04.890Z,393.00
2023-05-04T00:38:04.912Z,392.00
2023-05-04T00:39:04.897Z,394.00
2023-05-04T00:40:05.058Z,390.00
2023-05-04T00:41:04.897Z,390.00
2023-05-04T00:42:04.917Z,391.00
2023-05-04T00:43:04.895Z,393.00
2023-05-04T00:44:04.881Z,393.00
2023-05-04T00:45:04.888Z,392.00
2023-05-04T00:46:04.893Z,394.00
2023-05-04T00:47:04.938Z,395.00
2023-05-04T00:48:04.881Z,397.00
2023-05-04T00:49:04.877Z,397.00
2023-05-04T00:50:05.147Z,396.00
2023-05-04T00:51:04.878Z,394.00
2023-05-04T00:52:04.875Z,392.00
2023-05-04T00:53:04.882Z,391.00
2023-05-04T00:54:04.885Z,393.00
2023-05-04T00:55:04.887Z,393.00
2023-05-04T00:56:04.887Z,390.00
2023-05-04T00:57:04.898Z,391.00
2023-05-04T00:58:04.926Z,393.00
2023-05-04T00:59:04.982Z,394.00
2023-05-04T01:00:05.198Z,394.00
2023-05-04T01:01:05.036Z,393.00
2023-05-04T01:02:05.004Z,390.00
2023-05-04T01:03:05.154Z,387.00
2023-05-04T01:04:05.186Z,386.00
2023-05-04T01:05:05.070Z,386.00
2023-05-04T01:06:05.097Z,388.00
2023-05-04T01:07:05.141Z,389.00
2023-05-04T01:08:05.147Z,388.00
2023-05-04T01:09:05.164Z,388.00
2023-05-04T01:10:05.417Z,387.00
2023-05-04T01:11:05.208Z,388.00
2023-05-04T01:12:05.229Z,387.00
2023-05-04T01:13:05.303Z,388.00
2023-05-04T01:14:05.259Z,386.00
2023-05-04T01:15:05.271Z,387.00
2023-05-04T01:16:05.312Z,388.00
2023-05-04T01:17:05.557Z,385.00
2023-05-04T01:18:05.501Z,385.00
2023-05-04T01:19:05.456Z,386.00
2023-05-04T01:20:05.707Z,386.00
2023-05-04T01:21:05.522Z,386.00
2023-05-04T01:22:05.535Z,387.00
2023-05-04T01:23:05.563Z,387.00
2023-05-04T01:24:05.589Z,387.00
2023-05-04T01:25:05.645Z,386.00
2023-05-04T01:26:05.620Z,386.00
2023-05-04T01:27:05.639Z,383.00
2023-05-04T01:28:05.640Z,382.00
2023-05-04T01:29:05.680Z,382.00
2023-05-04T01:30:05.900Z,384.00
2023-05-04T01:31:05.702Z,384.00
2023-05-04T01:32:05.707Z,384.00
2023-05-04T01:33:05.709Z,384.00
2023-05-04T01:34:05.673Z,386.00
2023-05-04T01:35:05.654Z,387.00
2023-05-04T01:36:05.669Z,385.00
2023-05-04T01:37:05.689Z,382.00
2023-05-04T01:38:05.700Z,379.00
2023-05-04T01:39:05.721Z,382.00
2023-05-04T01:40:05.872Z,384.00
2023-05-04T01:41:05.702Z,381.00
2023-05-04T01:42:05.693Z,381.00
2023-05-04T01:43:05.682Z,381.00
2023-05-04T01:44:05.681Z,381.00
2023-05-04T01:45:05.715Z,384.00
2023-05-04T01:46:05.725Z,384.00
2023-05-04T01:47:05.701Z,383.00
2023-05-04T01:48:05.745Z,385.00
2023-05-04T01:49:05.742Z,387.00
2023-05-04T01:50:05.961Z,386.00
2023-05-04T01:51:05.741Z,383.00
2023-05-04T01:52:05.782Z,383.00
2023-05-04T01:53:05.793Z,382.00
2023-05-04T01:54:05.819Z,380.00
2023-05-04T01:55:05.841Z,381.00
2023-05-04T01:56:05.860Z,381.00
2023-05-04T01:57:05.863Z,381.00
2023-05-04T01:58:05.860Z,380.00
2023-05-04T01:59:05.890Z,381.00
2023-05-04T02:00:06.315Z,381.00
2023-05-04T02:01:05.925Z,382.00
2023-05-04T02:02:05.956Z,382.00
2023-05-04T02:03:06.046Z,381.00
2023-05-04T02:04:06.046Z,380.00
2023-05-04T02:05:05.951Z,382.00
2023-05-04T02:06:05.977Z,381.00
2023-05-04T02:07:05.991Z,384.00
2023-05-04T02:08:05.997Z,384.00
2023-05-04T02:09:06.013Z,384.00
2023-05-04T02:10:06.184Z,381.00
2023-05-04T02:11:06.029Z,381.00
2023-05-04T02:12:06.085Z,379.00
2023-05-04T02:13:06.056Z,379.00
2023-05-04T02:14:06.050Z,380.00
2023-05-04T02:15:06.059Z,383.00
2023-05-04T02:16:06.086Z,381.00
2023-05-04T02:17:06.165Z,380.00
2023-05-04T02:18:06.172Z,382.00
2023-05-04T02:19:06.133Z,380.00
2023-05-04T02:20:06.406Z,380.00
2023-05-04T02:21:06.177Z,378.00
2023-05-04T02:22:06.203Z,377.00
2023-05-04T02:23:06.229Z,378.00
2023-05-04T02:24:06.261Z,378.00
2023-05-04T02:25:06.232Z,377.00
2023-05-04T02:26:06.228Z,379.00
2023-05-04T02:27:06.247Z,377.00
2023-05-04T02:28:06.260Z,380.00
2023-05-04T02:29:06.270Z,380.00
2023-05-04T02:30:06.536Z,381.00
2023-05-04T02:31:06.364Z,381.00
2023-05-04T02:32:06.347Z,382.00
2023-05-04T02:33:06.309Z,381.00
2023-05-04T02:34:06.285Z,380.00
2023-05-04T02:35:06.314Z,384.00
2023-05-04T02:36:06.316Z,385.00
2023-05-04T02:37:07.582Z,383.00
2023-05-04T02:38:06.301Z,380.00
2023-05-04T02:39:06.319Z,380.00
2023-05-04T02:40:06.629Z,378.00
2023-05-04T02:41:06.346Z,381.00
2023-05-04T02:42:06.350Z,379.00
2023-05-04T02:43:06.356Z,379.00
2023-05-04T02:44:06.383Z,379.00
2023-05-04T02:45:06.380Z,379.00
2023-05-04T02:46:06.412Z,380.00
2023-05-04T02:47:06.402Z,380.00
2023-05-04T02:48:06.444Z,382.00
2023-05-04T02:49:06.427Z,379.00
2023-05-04T02:50:06.690Z,380.00
2023-05-04T02:51:06.442Z,376.00
2023-05-04T02:52:06.458Z,376.00
2023-05-04T02:53:06.465Z,376.00
2023-05-04T02:54:06.463Z,376.00
2023-05-04T02:55:06.462Z,375.00
2023-05-04T02:56:06.445Z,376.00
2023-05-04T02:57:06.453Z,377.00
2023-05-04T02:58:06.445Z,379.00
2023-05-04T02:59:06.486Z,377.00
2023-05-04T03:00:06.730Z,373.00
2023-05-04T03:01:06.491Z,372.00
2023-05-04T03:02:06.464Z,373.00
2023-05-04T03:03:06.497Z,371.00
2023-05-04T03:04:06.511Z,374.00
2023-05-04T03:05:06.582Z,375.00
2023-05-04T03:06:06.484Z,375.00
2023-05-04T03:07:06.490Z,375.00
2023-05-04T03:08:06.487Z,377.00
2023-05-04T03:09:06.489Z,377.00
2023-05-04T03:10:06.775Z,380.00
2023-05-04T03:11:06.500Z,379.00
2023-05-04T03:12:06.511Z,381.00
2023-05-04T03:13:06.564Z,378.00
2023-05-04T03:14:06.527Z,379.00
2023-05-04T03:15:06.514Z,380.00
2023-05-04T03:16:06.526Z,378.00
2023-05-04T03:17:06.535Z,380.00
2023-05-04T03:18:06.567Z,380.00
2023-05-04T03:19:06.547Z,383.00
2023-05-04T03:20:06.790Z,383.00
2023-05-04T03:21:06.552Z,383.00
2023-05-04T03:22:06.537Z,383.00
2023-05-04T03:23:06.539Z,385.00
2023-05-04T03:24:06.541Z,384.00
2023-05-04T03:25:06.532Z,381.00
2023-05-04T03:26:06.522Z,380.00
2023-05-04T03:27:06.536Z,378.00
2023-05-04T03:28:06.518Z,375.00
2023-05-04T03:29:06.522Z,373.00
2023-05-04T03:30:06.777Z,375.00
2023-05-04T03:31:06.529Z,376.00
2023-05-04T03:32:06.645Z,375.00
2023-05-04T03:33:06.574Z,376.00
2023-05-04T03:34:06.514Z,375.00
2023-05-04T03:35:06.509Z,375.00
2023-05-04T03:36:06.519Z,372.00
2023-05-04T03:37:06.548Z,372.00
2023-05-04T03:38:06.559Z,375.00
2023-05-04T03:39:06.550Z,375.00
2023-05-04T03:40:06.786Z,375.00
2023-05-04T03:41:06.545Z,376.00
2023-05-04T03:42:06.579Z,375.00
2023-05-04T03:43:06.574Z,373.00
2023-05-04T03:44:06.593Z,373.00
2023-05-04T03:45:06.582Z,372.00
2023-05-04T03:46:06.698Z,372.00
2023-05-04T03:47:06.625Z,370.00
2023-05-04T03:48:06.700Z,372.00
2023-05-04T03:49:06.665Z,372.00
2023-05-04T03:50:07.011Z,371.00
2023-05-04T03:51:06.752Z,373.00
2023-05-04T03:52:06.782Z,374.00
2023-05-04T03:53:06.832Z,373.00
2023-05-04T03:54:06.723Z,373.00
2023-05-04T03:55:06.749Z,376.00
2023-05-04T03:56:06.774Z,375.00
2023-05-04T03:57:06.768Z,374.00
2023-05-04T03:58:06.784Z,372.00
2023-05-04T03:59:06.797Z,372.00
2023-05-04T04:00:07.049Z,374.00
2023-05-04T04:01:06.814Z,372.00
2023-05-04T04:02:06.888Z,371.00
2023-05-04T04:03:06.930Z,371.00
2023-05-04T04:04:06.904Z,368.00
2023-05-04T04:05:06.869Z,368.00
2023-05-04T04:06:06.899Z,369.00
2023-05-04T04:07:06.886Z,369.00
2023-05-04T04:08:06.914Z,371.00
2023-05-04T04:09:06.901Z,372.00
2023-05-04T04:10:07.129Z,375.00
2023-05-04T04:11:06.945Z,378.00
2023-05-04T04:12:06.927Z,377.00
2023-05-04T04:13:06.972Z,379.00
2023-05-04T04:14:06.944Z,380.00
2023-05-04T04:15:06.944Z,378.00
2023-05-04T04:16:07.028Z,379.00
2023-05-04T04:17:06.966Z,376.00
2023-05-04T04:18:07.048Z,377.00
2023-05-04T04:19:06.933Z,377.00
2023-05-04T04:20:07.105Z,375.00
2023-05-04T04:21:06.930Z,375.00
2023-05-04T04:22:06.918Z,375.00
2023-05-04T04:23:06.901Z,373.00
2023-05-04T04:24:06.902Z,376.00
2023-05-04T04:25:06.899Z,377.00
2023-05-04T04:26:06.891Z,376.00
2023-05-04T04:27:06.893Z,378.00
2023-05-04T04:28:06.881Z,379.00
2023-05-04T04:29:06.883Z,379.00
2023-05-04T04:30:07.043Z,376.00
2023-05-04T04:31:06.894Z,375.00
2023-05-04T04:32:06.900Z,375.00
2023-05-04T04:33:06.913Z,377.00
2023-05-04T04:34:06.869Z,378.00
2023-05-04T04:35:06.888Z,376.00
2023-05-04T04:36:06.871Z,377.00
2023-05-04T04:37:06.894Z,377.00
2023-05-04T04:38:06.877Z,377.00
2023-05-04T04:39:06.866Z,377.00
2023-05-04T04:40:06.943Z,375.00
2023-05-04T04:41:06.868Z,374.00
2023-05-04T04:42:06.865Z,373.00
2023-05-04T04:43:06.869Z,371.00
2023-05-04T04:44:06.861Z,371.00
2023-05-04T04:45:06.846Z,371.00
2023-05-04T04:46:06.844Z,373.00
2023-05-04T04:47:06.908Z,375.00
2023-05-04T04:48:07.192Z,373.00
2023-05-04T04:49:06.848Z,374.00
2023-05-04T04:50:06.982Z,375.00
2023-05-04T04:51:06.853Z,374.00
2023-05-04T04:52:06.855Z,373.00
2023-05-04T04:53:06.850Z,376.00
2023-05-04T04:54:06.854Z,373.00
2023-05-04T04:55:06.852Z,376.00
2023-05-04T04:56:06.867Z,375.00
2023-05-04T04:57:06.879Z,374.00
2023-05-04T04:58:06.892Z,373.00
2023-05-04T04:59:06.901Z,373.00
2023-05-04T05:00:07.052Z,370.00
2023-05-04T05:01:06.917Z,367.00
2023-05-04T05:02:06.901Z,368.00
2023-05-04T05:03:06.932Z,369.00
2023-05-04T05:04:06.904Z,371.00
2023-05-04T05:05:07.081Z,372.00
2023-05-04T05:06:06.903Z,373.00
2023-05-04T05:07:06.908Z,374.00
2023-05-04T05:08:06.936Z,374.00
2023-05-04T05:09:06.905Z,375.00
2023-05-04T05:10:07.190Z,373.00
2023-05-04T05:11:06.896Z,374.00
2023-05-04T05:12:06.890Z,372.00
2023-05-04T05:13:06.950Z,372.00
2023-05-04T05:14:06.890Z,376.00
2023-05-04T05:15:06.887Z,375.00
2023-05-04T05:16:06.976Z,373.00
2023-05-04T05:17:06.940Z,374.00
2023-05-04T05:18:06.979Z,372.00
2023-05-04T05:19:06.866Z,370.00
2023-05-04T05:20:06.996Z,368.00
2023-05-04T05:21:06.861Z,370.00
2023-05-04T05:22:06.880Z,370.00
2023-05-04T05:23:06.874Z,368.00
2023-05-04T05:24:06.846Z,366.00
2023-05-04T05:25:06.875Z,364.00
2023-05-04T05:26:06.851Z,360.00
2023-05-04T05:27:06.837Z,360.00
2023-05-04T05:28:06.842Z,360.00
2023-05-04T05:29:06.866Z,359.00
2023-05-04T05:30:07.203Z,360.00
2023-05-04T05:31:06.903Z,362.00
2023-05-04T05:32:06.851Z,365.00
2023-05-04T05:33:06.942Z,362.00
2023-05-04T05:34:06.815Z,359.00
2023-05-04T05:35:06.855Z,365.00
2023-05-04T05:36:06.847Z,388.00
2023-05-04T05:37:06.832Z,448.00
2023-05-04T05:38:06.840Z,490.00
2023-05-04T05:39:06.810Z,533.00
2023-05-04T05:40:07.029Z,543.00
2023-05-04T05:41:06.848Z,590.00
2023-05-04T05:42:06.796Z,639.00
2023-05-04T05:43:06.814Z,645.00
2023-05-04T05:44:06.808Z,652.00
2023-05-04T05:45:06.885Z,645.00
2023-05-04T05:46:07.063Z,659.00
2023-05-04T05:47:07.000Z,653.00
2023-05-04T05:48:07.106Z,659.00
2023-05-04T05:49:07.075Z,659.00
2023-05-04T05:50:07.289Z,673.00
2023-05-04T05:51:07.157Z,727.00
2023-05-04T05:52:07.195Z,744.00
2023-05-04T05:53:08.205Z,767.00
2023-05-04T05:54:07.347Z,774.00
2023-05-04T05:55:07.283Z,787.00
2023-05-04T05:56:07.333Z,798.00
2023-05-04T05:57:07.374Z,824.00
2023-05-04T05:58:07.409Z,858.00
2023-05-04T05:59:07.436Z,867.00
2023-05-04T06:00:07.633Z,875.00
2023-05-04T06:01:07.575Z,883.00
2023-05-04T06:02:07.726Z,891.00
2023-05-04T06:03:07.764Z,904.00
2023-05-04T06:04:07.742Z,913.00
2023-05-04T06:05:07.786Z,923.00
2023-05-04T06:06:07.696Z,932.00
2023-05-04T06:07:07.749Z,953.00
2023-05-04T06:08:07.736Z,963.00
2023-05-04T06:09:07.775Z,974.00
2023-05-04T06:10:08.083Z,980.00
2023-05-04T06:11:07.826Z,988.00
2023-05-04T06:12:07.872Z,1000.00
2023-05-04T06:13:07.959Z,1039.00
2023-05-04T06:14:07.866Z,1043.00
2023-05-04T06:15:07.874Z,1038.00
2023-05-04T06:16:08.357Z,1035.00
2023-05-04T06:17:07.915Z,1041.00
2023-05-04T06:18:07.989Z,1066.00
2023-05-04T06:19:07.912Z,1077.00
2023-05-04T06:20:08.000Z,1082.00
2023-05-04T06:21:08.030Z,1094.00
2023-05-04T06:22:07.919Z,1101.00
2023-05-04T06:23:07.933Z,1102.00
2023-05-04T06:24:07.927Z,1105.00
2023-05-04T06:25:08.423Z,1110.00
2023-05-04T06:26:07.955Z,1113.00
2023-05-04T06:27:07.923Z,1122.00
2023-05-04T06:28:08.063Z,1131.00
2023-05-04T06:29:08.006Z,1132.00
2023-05-04T06:30:08.269Z,1121.00
2023-05-04T06:31:07.965Z,1118.00
2023-05-04T06:32:07.985Z,1119.00
2023-05-04T06:33:07.930Z,1113.00
2023-05-04T06:34:07.906Z,1111.00
2023-05-04T06:35:07.821Z,1171.00
2023-05-04T06:36:07.795Z,1127.00
2023-05-04T06:37:07.737Z,1125.00
2023-05-04T06:38:07.797Z,1123.00
2023-05-04T06:39:07.679Z,1117.00
2023-05-04T06:40:07.685Z,1120.00
2023-05-04T06:41:07.641Z,1122.00
2023-05-04T06:42:07.541Z,1151.00
2023-05-04T06:43:07.513Z,1178.00
2023-05-04T06:44:07.564Z,1173.00
2023-05-04T06:45:07.443Z,1168.00
2023-05-04T06:46:07.385Z,1175.00
2023-05-04T06:47:07.353Z,1176.00
2023-05-04T06:48:07.768Z,1177.00
2023-05-04T06:49:07.240Z,1185.00
2023-05-04T06:50:07.223Z,1190.00
2023-05-04T06:51:07.157Z,1192.00
2023-05-04T06:52:07.116Z,1188.00
2023-05-04T06:53:07.097Z,1187.00
2023-05-04T06:54:07.025Z,1187.00
2023-05-04T06:55:07.737Z,1186.00
2023-05-04T06:56:06.915Z,1193.00
2023-05-04T06:57:06.879Z,1196.00
2023-05-04T06:58:06.954Z,1198.00
2023-05-04T06:59:06.783Z,1200.00
2023-05-04T07:00:06.901Z,1202.00
2023-05-04T07:01:06.807Z,1210.00
2023-05-04T07:02:06.814Z,1215.00
2023-05-04T07:03:06.790Z,1214.00
2023-05-04T07:04:06.885Z,1217.00
2023-05-04T07:05:06.709Z,1221.00
2023-05-04T07:06:06.664Z,1222.00
2023-05-04T07:07:06.651Z,1218.00
2023-05-04T07:08:06.599Z,758.00
2023-05-04T07:09:06.582Z,500.00
2023-05-04T07:10:06.756Z,550.00
2023-05-04T07:11:06.529Z,585.00
2023-05-04T07:12:06.578Z,503.00
2023-05-04T07:13:06.671Z,531.00
2023-05-04T07:14:07.870Z,474.00
2023-05-04T07:15:06.664Z,474.00
2023-05-04T07:16:06.711Z,435.00
2023-05-04T07:17:06.708Z,390.00
2023-05-04T07:18:06.789Z,412.00
2023-05-04T07:19:06.727Z,418.00
2023-05-04T07:20:06.965Z,491.00
2023-05-04T07:21:26.086Z,504.00
2023-05-04T07:22:08.106Z,522.00
2023-05-04T07:23:06.694Z,573.00
2023-05-04T07:24:06.692Z,581.00
2023-05-04T07:25:06.722Z,587.00
2023-05-04T07:26:06.693Z,608.00
2023-05-04T07:27:06.675Z,630.00
2023-05-04T07:28:07.245Z,636.00
2023-05-04T07:29:06.645Z,644.00
2023-05-04T07:30:06.832Z,699.00
2023-05-04T07:31:06.677Z,621.00
2023-05-04T07:32:06.646Z,750.00
2023-05-04T07:33:06.647Z,674.00
2023-05-04T07:34:06.669Z,677.00
2023-05-04T07:35:06.628Z,595.00
2023-05-04T07:36:06.695Z,653.00
2023-05-04T07:37:06.741Z,651.00
2023-05-04T07:38:06.539Z,628.00
2023-05-04T07:39:06.540Z,630.00
2023-05-04T07:40:06.887Z,634.00
2023-05-04T07:41:06.509Z,680.00
2023-05-04T07:42:06.510Z,695.00
2023-05-04T07:43:06.620Z,702.00
2023-05-04T07:44:06.515Z,718.00
2023-05-04T07:45:06.542Z,719.00
2023-05-04T07:46:06.557Z,770.00
2023-05-04T07:47:06.519Z,774.00
2023-05-04T07:48:06.550Z,775.00
2023-05-04T07:49:06.488Z,837.00
2023-05-04T07:50:06.678Z,815.00
2023-05-04T07:51:06.486Z,804.00
2023-05-04T07:52:06.477Z,1317.00
2023-05-04T07:53:06.474Z,963.00
2023-05-04T07:54:06.475Z,861.00
2023-05-04T07:55:06.510Z,852.00
2023-05-04T07:56:06.574Z,861.00
2023-05-04T07:57:06.638Z,866.00
2023-05-04T07:58:06.745Z,861.00
2023-05-04T07:59:06.721Z,861.00
2023-05-04T08:00:06.879Z,920.00
2023-05-04T08:01:06.830Z,920.00
2023-05-04T08:02:06.793Z,898.00
2023-05-04T08:03:06.781Z,914.00
2023-05-04T08:04:06.692Z,911.00
2023-05-04T08:05:06.702Z,1004.00
2023-05-04T08:06:06.726Z,986.00
2023-05-04T08:07:06.771Z,973.00
2023-05-04T08:08:06.658Z,976.00
2023-05-04T08:09:06.707Z,979.00
2023-05-04T08:10:06.727Z,1020.00
2023-05-04T08:11:19.390Z,1120.00
2023-05-04T08:12:07.603Z,1001.00
2023-05-04T08:13:06.620Z,1014.00
2023-05-04T08:14:06.577Z,1020.00
2023-05-04T08:15:06.796Z,1018.00
2023-05-04T08:16:06.545Z,1010.00
2023-05-04T08:17:06.534Z,1008.00
2023-05-04T08:18:06.541Z,1006.00
2023-05-04T08:19:06.586Z,1017.00
2023-05-04T08:20:06.495Z,1029.00
2023-05-04T08:21:06.490Z,1037.00
2023-05-04T08:22:06.435Z,1047.00
2023-05-04T08:23:06.453Z,1048.00
2023-05-04T08:24:06.408Z,1045.00
2023-05-04T08:25:06.577Z,1046.00
2023-05-04T08:26:06.382Z,1054.00
2023-05-04T08:27:08.925Z,1062.00
2023-05-04T08:28:06.357Z,1105.00
2023-05-04T08:29:06.327Z,1076.00
2023-05-04T08:30:06.390Z,973.00
2023-05-04T08:31:06.268Z,944.00
2023-05-04T08:32:06.379Z,944.00
2023-05-04T08:33:06.339Z,928.00
2023-05-04T08:34:06.817Z,928.00
2023-05-04T08:35:06.292Z,920.00
2023-05-04T08:36:06.168Z,903.00
2023-05-04T08:37:06.203Z,845.00
2023-05-04T08:38:06.208Z,851.00
2023-05-04T08:39:06.122Z,834.00
2023-05-04T08:40:06.208Z,808.00
2023-05-04T08:41:06.206Z,728.00
2023-05-04T08:42:06.053Z,701.00
2023-05-04T08:43:06.049Z,701.00
2023-05-04T08:44:06.015Z,699.00
2023-05-04T08:45:06.250Z,703.00
2023-05-04T08:46:06.097Z,705.00
2023-05-04T08:47:06.026Z,695.00
2023-05-04T08:48:06.231Z,708.00
2023-05-04T08:49:05.954Z,743.00
2023-05-04T08:50:05.957Z,735.00
2023-05-04T08:51:05.935Z,733.00
2023-05-04T08:52:05.921Z,851.00
2023-05-04T08:53:05.974Z,827.00
2023-05-04T08:54:06.036Z,822.00
2023-05-04T08:55:06.297Z,819.00
2023-05-04T08:56:06.147Z,789.00
2023-05-04T08:57:06.252Z,750.00
2023-05-04T08:58:06.232Z,716.00
2023-05-04T08:59:06.248Z,715.00
2023-05-04T09:00:06.321Z,710.00
2023-05-04T09:01:06.577Z,715.00
2023-05-04T09:02:06.710Z,718.00
2023-05-04T09:03:06.603Z,723.00
2023-05-04T09:04:06.556Z,722.00
2023-05-04T09:05:06.690Z,723.00
2023-05-04T09:06:06.582Z,717.00
2023-05-04T09:07:06.602Z,717.00
2023-05-04T09:08:06.688Z,706.00
2023-05-04T09:09:06.732Z,706.00
2023-05-04T09:10:08.264Z,702.00
2023-05-04T09:11:06.824Z,694.00
2023-05-04T09:12:06.840Z,694.00
2023-05-04T09:13:06.895Z,690.00
2023-05-04T09:14:06.924Z,693.00
2023-05-04T09:15:07.063Z,686.00
2023-05-04T09:16:06.878Z,686.00
2023-05-04T09:17:06.941Z,679.00
2023-05-04T09:18:06.920Z,673.00
2023-05-04T09:19:06.859Z,675.00
2023-05-04T09:20:06.859Z,673.00
2023-05-04T09:21:06.813Z,672.00
2023-05-04T09:22:06.864Z,674.00
2023-05-04T09:23:06.810Z,677.00
2023-05-04T09:24:06.800Z,698.00
2023-05-04T09:25:06.867Z,720.00
2023-05-04T09:26:07.326Z,765.00
2023-05-04T09:27:06.802Z,778.00
2023-05-04T09:28:06.788Z,776.00
2023-05-04T09:29:06.815Z,758.00
2023-05-04T09:30:06.819Z,774.00
2023-05-04T09:31:06.847Z,776.00
2023-05-04T09:32:06.799Z,777.00
2023-05-04T09:33:06.820Z,785.00
2023-05-04T09:34:06.837Z,804.00
2023-05-04T09:35:07.051Z,825.00
2023-05-04T09:36:06.815Z,838.00
2023-05-04T09:37:06.844Z,847.00
2023-05-04T09:38:06.840Z,870.00
2023-05-04T09:39:06.840Z,895.00
2023-05-04T09:40:06.794Z,885.00
2023-05-04T09:41:06.752Z,895.00
2023-05-04T09:42:06.733Z,1007.00
2023-05-04T09:43:06.752Z,991.00
2023-05-04T09:44:06.722Z,983.00
2023-05-04T09:45:06.969Z,997.00
2023-05-04T09:46:06.707Z,992.00
2023-05-04T09:47:06.627Z,924.00
2023-05-04T09:48:06.618Z,900.00
2023-05-04T09:49:06.586Z,836.00
2023-05-04T09:50:06.562Z,795.00
2023-05-04T09:51:06.554Z,755.00
2023-05-04T09:52:06.566Z,690.00
2023-05-04T09:53:06.525Z,687.00
2023-05-04T09:54:06.503Z,690.00
2023-05-04T09:55:06.730Z,677.00
2023-05-04T09:56:08.126Z,651.00
2023-05-04T09:57:06.546Z,700.00
2023-05-04T09:58:06.461Z,698.00
2023-05-04T09:59:06.429Z,685.00
2023-05-04T10:00:06.399Z,688.00
2023-05-04T10:01:06.375Z,696.00
2023-05-04T10:02:14.582Z,690.00
2023-05-04T10:03:07.436Z,686.00
2023-05-04T10:04:06.335Z,683.00
2023-05-04T10:05:06.652Z,680.00
2023-05-04T10:06:06.282Z,677.00
2023-05-04T10:07:06.251Z,673.00
2023-05-04T10:08:06.236Z,668.00
2023-05-04T10:09:06.259Z,673.00
2023-05-04T10:10:06.201Z,659.00
2023-05-04T10:11:06.221Z,651.00
2023-05-04T10:12:06.157Z,648.00
2023-05-04T10:13:06.187Z,647.00
2023-05-04T10:14:06.112Z,643.00
2023-05-04T10:15:06.294Z,635.00
2023-05-04T10:16:06.161Z,630.00
2023-05-04T10:17:06.169Z,625.00
2023-05-04T10:18:06.189Z,618.00
2023-05-04T10:19:06.242Z,616.00
2023-05-04T10:20:06.274Z,612.00
2023-05-04T10:21:06.371Z,610.00
2023-05-04T10:22:06.329Z,609.00
2023-05-04T10:23:06.405Z,606.00
2023-05-04T10:24:06.437Z,605.00
2023-05-04T10:25:06.559Z,602.00
2023-05-04T10:26:06.573Z,600.00
2023-05-04T10:27:06.603Z,594.00
2023-05-04T10:28:06.610Z,591.00
2023-05-04T10:29:06.611Z,591.00
2023-05-04T10:30:06.648Z,589.00
2023-05-04T10:31:06.680Z,585.00
2023-05-04T10:32:06.835Z,583.00
2023-05-04T10:33:06.837Z,578.00
2023-05-04T10:34:06.831Z,576.00
2023-05-04T10:35:07.031Z,573.00
2023-05-04T10:36:06.924Z,569.00
2023-05-04T10:37:06.940Z,568.00
2023-05-04T10:38:07.074Z,567.00
2023-05-04T10:39:07.007Z,565.00
2023-05-04T10:40:07.963Z,563.00
2023-05-04T10:41:07.158Z,562.00
2023-05-04T10:42:07.127Z,559.00
2023-05-04T10:43:07.288Z,559.00
2023-05-04T10:44:07.193Z,557.00
2023-05-04T10:45:07.249Z,556.00
2023-05-04T10:46:07.290Z,554.00
2023-05-04T10:47:07.389Z,552.00
2023-05-04T10:48:07.386Z,553.00
2023-05-04T10:49:07.369Z,544.00
2023-05-04T10:50:07.445Z,546.00
2023-05-04T10:51:07.456Z,542.00
2023-05-04T10:52:07.575Z,542.00
2023-05-04T10:53:07.560Z,546.00
2023-05-04T10:54:08.323Z,545.00
2023-05-04T10:55:07.702Z,541.00
2023-05-04T10:56:07.621Z,542.00
2023-05-04T10:57:07.675Z,537.00
2023-05-04T10:58:07.631Z,540.00
2023-05-04T10:59:07.929Z,539.00
2023-05-04T11:00:07.643Z,536.00
2023-05-04T11:01:07.632Z,539.00
2023-05-04T11:02:08.386Z,537.00
2023-05-04T11:03:07.669Z,530.00
2023-05-04T11:04:07.551Z,529.00
2023-05-04T11:05:07.873Z,532.00
2023-05-04T11:06:07.665Z,533.00
2023-05-04T11:07:07.572Z,533.00
2023-05-04T11:08:07.677Z,532.00
2023-05-04T11:09:07.674Z,531.00
2023-05-04T11:10:07.715Z,531.00
2023-05-04T11:11:07.725Z,529.00
2023-05-04T11:12:07.793Z,531.00
2023-05-04T11:13:08.188Z,529.00
2023-05-04T11:14:07.829Z,530.00
2023-05-04T11:15:08.106Z,528.00
2023-05-04T11:16:07.921Z,527.00
2023-05-04T11:17:16.009Z,526.00
2023-05-04T11:18:09.104Z,525.00
2023-05-04T11:19:07.955Z,523.00
2023-05-04T11:20:07.891Z,522.00
2023-05-04T11:21:08.028Z,520.00
2023-05-04T11:22:07.832Z,518.00
2023-05-04T11:23:10.337Z,518.00
2023-05-04T11:24:07.982Z,517.00
2023-05-04T11:25:08.023Z,516.00
2023-05-04T11:26:08.062Z,511.00
2023-05-04T11:27:08.234Z,511.00
2023-05-04T11:28:08.823Z,512.00
2023-05-04T11:29:09.146Z,509.00
2023-05-04T11:30:08.924Z,508.00
2023-05-04T11:31:08.064Z,507.00
2023-05-04T11:32:07.976Z,502.00
2023-05-04T11:33:07.974Z,501.00
2023-05-04T11:34:08.134Z,501.00
2023-05-04T11:35:08.224Z,504.00
2023-05-04T11:36:07.940Z,502.00
2023-05-04T11:37:07.891Z,501.00
2023-05-04T11:38:07.884Z,500.00
2023-05-04T11:39:07.911Z,500.00
2023-05-04T11:40:07.845Z,500.00
2023-05-04T11:41:07.829Z,501.00
2023-05-04T11:42:07.826Z,502.00
2023-05-04T11:43:07.791Z,500.00
2023-05-04T11:44:07.812Z,497.00
2023-05-04T11:45:07.802Z,494.00
2023-05-04T11:46:07.863Z,492.00
2023-05-04T11:47:07.734Z,491.00
2023-05-04T11:48:07.791Z,487.00
2023-05-04T11:49:07.703Z,486.00
2023-05-04T11:50:07.721Z,482.00
2023-05-04T11:51:07.676Z,480.00
2023-05-04T11:52:07.769Z,482.00
2023-05-04T11:53:07.673Z,482.00
2023-05-04T11:54:07.677Z,481.00
2023-05-04T11:55:07.894Z,480.00
2023-05-04T11:56:07.733Z,480.00
2023-05-04T11:57:07.727Z,479.00
2023-05-04T11:58:07.749Z,483.00
2023-05-04T11:59:07.752Z,483.00
2023-05-04T12:00:07.854Z,483.00
2023-05-04T12:01:08.397Z,484.00
2023-05-04T12:02:07.853Z,484.00
2023-05-04T12:03:08.156Z,482.00
2023-05-04T12:04:08.217Z,483.00
2023-05-04T12:05:08.241Z,481.00
2023-05-04T12:06:08.020Z,479.00
2023-05-04T12:07:08.046Z,477.00
2023-05-04T12:08:08.079Z,475.00
2023-05-04T12:09:08.138Z,474.00
2023-05-04T12:10:08.182Z,473.00
2023-05-04T12:11:08.175Z,471.00
2023-05-04T12:12:08.229Z,470.00
2023-05-04T12:13:08.313Z,469.00
2023-05-04T12:14:08.261Z,470.00
2023-05-04T12:15:08.469Z,468.00
2023-05-04T12:16:08.350Z,469.00
2023-05-04T12:17:08.333Z,466.00
2023-05-04T12:18:08.416Z,464.00
2023-05-04T12:19:08.471Z,463.00
2023-05-04T12:20:08.454Z,461.00
2023-05-04T12:21:08.482Z,458.00
2023-05-04T12:22:08.517Z,458.00
2023-05-04T12:23:08.654Z,458.00
2023-05-04T12:24:08.584Z,460.00
2023-05-04T12:25:09.009Z,460.00
2023-05-04T12:26:08.623Z,461.00